sensor_id;sensor_type;location;lat;lon;timestamp;pressure;altitude;pressure_sealevel;temperature;humidity
24752;BME280;27246;52.376;4.628;2022-10-16T00:00:58;100659.50;;;12.85;88.69
24752;BME280;27246;52.376;4.628;2022-10-16T00:06:05;100659.69;;;12.83;87.80
24752;BME280;27246;52.376;4.628;2022-10-16T00:11:13;100661.59;;;12.83;87.40
24752;BME280;27246;52.376;4.628;2022-10-16T00:16:15;100658.19;;;12.80;87.62
24752;BME280;27246;52.376;4.628;2022-10-16T00:21:20;100662.03;;;12.79;86.95
24752;BME280;27246;52.376;4.628;2022-10-16T00:26:23;100668.41;;;12.80;86.79
24752;BME280;27246;52.376;4.628;2022-10-16T00:31:25;100666.69;;;12.79;86.55
24752;BME280;27246;52.376;4.628;2022-10-16T00:36:27;100653.50;;;12.81;85.75
24752;BME280;27246;52.376;4.628;2022-10-16T00:41:29;100649.06;;;12.80;85.30
24752;BME280;27246;52.376;4.628;2022-10-16T00:46:38;100651.19;;;12.78;84.53
24752;BME280;27246;52.376;4.628;2022-10-16T00:51:43;100660.50;;;12.77;84.14
24752;BME280;27246;52.376;4.628;2022-10-16T00:56:47;100664.34;;;12.76;84.10
24752;BME280;27246;52.376;4.628;2022-10-16T01:01:48;100667.94;;;12.76;83.15
24752;BME280;27246;52.376;4.628;2022-10-16T01:12:45;100672.63;;;12.76;82.99
24752;BME280;27246;52.376;4.628;2022-10-16T01:18:06;100673.03;;;12.73;82.93
24752;BME280;27246;52.376;4.628;2022-10-16T01:28:58;100687.00;;;12.65;83.76
24752;BME280;27246;52.376;4.628;2022-10-16T01:34:06;100676.38;;;12.62;83.97
24752;BME280;27246;52.376;4.628;2022-10-16T01:39:12;100668.94;;;12.62;84.12
24752;BME280;27246;52.376;4.628;2022-10-16T01:44:25;100665.09;;;12.63;84.54
24752;BME280;27246;52.376;4.628;2022-10-16T01:49:32;100667.84;;;12.63;84.48
24752;BME280;27246;52.376;4.628;2022-10-16T01:54:37;100674.47;;;12.62;85.58
24752;BME280;27246;52.376;4.628;2022-10-16T01:59:47;100684.91;;;12.67;85.68
24752;BME280;27246;52.376;4.628;2022-10-16T02:05:03;100674.91;;;12.66;86.53
24752;BME280;27246;52.376;4.628;2022-10-16T02:10:06;100687.22;;;12.63;87.39
24752;BME280;27246;52.376;4.628;2022-10-16T02:15:08;100700.38;;;12.61;88.00
24752;BME280;27246;52.376;4.628;2022-10-16T02:20:10;100701.00;;;12.56;88.67
24752;BME280;27246;52.376;4.628;2022-10-16T02:25:18;100685.03;;;12.52;90.06
24752;BME280;27246;52.376;4.628;2022-10-16T02:30:39;100687.97;;;12.50;90.27
24752;BME280;27246;52.376;4.628;2022-10-16T02:35:44;100696.41;;;12.42;91.08
24752;BME280;27246;52.376;4.628;2022-10-16T02:40:47;100702.59;;;12.44;91.35
24752;BME280;27246;52.376;4.628;2022-10-16T02:45:50;100708.09;;;12.37;91.81
24752;BME280;27246;52.376;4.628;2022-10-16T02:50:51;100708.28;;;12.36;92.30
24752;BME280;27246;52.376;4.628;2022-10-16T02:55:53;100716.56;;;12.36;93.06
24752;BME280;27246;52.376;4.628;2022-10-16T03:00:55;100713.16;;;12.34;93.44
24752;BME280;27246;52.376;4.628;2022-10-16T03:05:57;100731.41;;;12.35;93.29
24752;BME280;27246;52.376;4.628;2022-10-16T03:10:58;100731.03;;;12.38;94.26
24752;BME280;27246;52.376;4.628;2022-10-16T03:16:02;100745.22;;;12.35;94.56
24752;BME280;27246;52.376;4.628;2022-10-16T03:21:04;100735.72;;;12.37;94.27
24752;BME280;27246;52.376;4.628;2022-10-16T03:26:05;100732.06;;;12.37;94.69
24752;BME280;27246;52.376;4.628;2022-10-16T03:31:07;100730.56;;;12.34;95.13
24752;BME280;27246;52.376;4.628;2022-10-16T03:36:09;100725.88;;;12.35;95.22
24752;BME280;27246;52.376;4.628;2022-10-16T03:41:11;100740.75;;;12.34;95.87
24752;BME280;27246;52.376;4.628;2022-10-16T03:46:12;100744.97;;;12.30;96.41
24752;BME280;27246;52.376;4.628;2022-10-16T03:51:14;100750.84;;;12.27;96.58
24752;BME280;27246;52.376;4.628;2022-10-16T03:56:17;100755.06;;;12.23;97.44
24752;BME280;27246;52.376;4.628;2022-10-16T04:01:18;100765.72;;;12.26;97.47
24752;BME280;27246;52.376;4.628;2022-10-16T04:06:20;100769.44;;;12.33;97.36
24752;BME280;27246;52.376;4.628;2022-10-16T04:11:22;100756.38;;;12.27;97.86
24752;BME280;27246;52.376;4.628;2022-10-16T04:16:24;100750.84;;;12.27;98.79
24752;BME280;27246;52.376;4.628;2022-10-16T04:21:26;100753.44;;;12.28;98.52
24752;BME280;27246;52.376;4.628;2022-10-16T04:26:27;100762.50;;;12.22;98.99
24752;BME280;27246;52.376;4.628;2022-10-16T04:31:29;100772.09;;;12.26;99.65
24752;BME280;27246;52.376;4.628;2022-10-16T04:36:31;100770.41;;;12.25;100.00
24752;BME280;27246;52.376;4.628;2022-10-16T04:41:32;100778.47;;;12.27;100.00
24752;BME280;27246;52.376;4.628;2022-10-16T04:46:34;100787.84;;;12.26;100.00
24752;BME280;27246;52.376;4.628;2022-10-16T04:51:36;100798.03;;;12.25;100.00
24752;BME280;27246;52.376;4.628;2022-10-16T04:56:37;100809.06;;;12.25;100.00
24752;BME280;27246;52.376;4.628;2022-10-16T05:01:47;100809.16;;;12.32;100.00
24752;BME280;27246;52.376;4.628;2022-10-16T05:06:49;100820.78;;;12.27;100.00
24752;BME280;27246;52.376;4.628;2022-10-16T05:11:51;100819.25;;;12.25;100.00
24752;BME280;27246;52.376;4.628;2022-10-16T05:16:52;100817.88;;;12.14;100.00
24752;BME280;27246;52.376;4.628;2022-10-16T05:21:54;100836.16;;;12.15;100.00
24752;BME280;27246;52.376;4.628;2022-10-16T05:26:56;100848.06;;;12.15;100.00
24752;BME280;27246;52.376;4.628;2022-10-16T05:31:57;100856.84;;;12.04;100.00
24752;BME280;27246;52.376;4.628;2022-10-16T05:36:59;100859.78;;;12.02;100.00
24752;BME280;27246;52.376;4.628;2022-10-16T05:42:01;100856.19;;;12.02;100.00
24752;BME280;27246;52.376;4.628;2022-10-16T05:47:02;100860.84;;;12.01;100.00
24752;BME280;27246;52.376;4.628;2022-10-16T05:52:04;100866.56;;;12.00;100.00
24752;BME280;27246;52.376;4.628;2022-10-16T05:57:06;100859.53;;;11.97;100.00
24752;BME280;27246;52.376;4.628;2022-10-16T06:02:12;100868.41;;;11.93;100.00
24752;BME280;27246;52.376;4.628;2022-10-16T06:07:14;100869.91;;;11.95;100.00
24752;BME280;27246;52.376;4.628;2022-10-16T06:12:16;100865.63;;;11.93;100.00
24752;BME280;27246;52.376;4.628;2022-10-16T06:17:18;100879.81;;;11.90;100.00
24752;BME280;27246;52.376;4.628;2022-10-16T06:22:19;100880.47;;;11.92;100.00
24752;BME280;27246;52.376;4.628;2022-10-16T06:27:21;100893.81;;;11.88;100.00
24752;BME280;27246;52.376;4.628;2022-10-16T06:32:25;100909.16;;;11.91;100.00
24752;BME280;27246;52.376;4.628;2022-10-16T06:37:26;100906.38;;;11.91;100.00
24752;BME280;27246;52.376;4.628;2022-10-16T06:42:29;100916.94;;;11.87;100.00
24752;BME280;27246;52.376;4.628;2022-10-16T06:47:30;100921.63;;;11.87;100.00
24752;BME280;27246;52.376;4.628;2022-10-16T06:52:33;100929.41;;;11.83;100.00
24752;BME280;27246;52.376;4.628;2022-10-16T06:57:35;100943.03;;;11.85;100.00
24752;BME280;27246;52.376;4.628;2022-10-16T07:02:36;100941.31;;;11.84;100.00
24752;BME280;27246;52.376;4.628;2022-10-16T07:07:38;100953.69;;;11.88;100.00
24752;BME280;27246;52.376;4.628;2022-10-16T07:12:40;100972.25;;;11.94;100.00
24752;BME280;27246;52.376;4.628;2022-10-16T07:17:42;100978.06;;;11.99;100.00
24752;BME280;27246;52.376;4.628;2022-10-16T07:22:44;100985.56;;;12.05;100.00
24752;BME280;27246;52.376;4.628;2022-10-16T07:27:45;100999.16;;;12.07;100.00
24752;BME280;27246;52.376;4.628;2022-10-16T07:32:47;101024.97;;;12.29;100.00
24752;BME280;27246;52.376;4.628;2022-10-16T07:37:49;101034.78;;;12.46;100.00
24752;BME280;27246;52.376;4.628;2022-10-16T07:42:51;101032.50;;;12.50;100.00
24752;BME280;27246;52.376;4.628;2022-10-16T07:47:52;101050.41;;;12.54;100.00
24752;BME280;27246;52.376;4.628;2022-10-16T07:52:54;101055.66;;;12.49;100.00
24752;BME280;27246;52.376;4.628;2022-10-16T07:57:56;101065.28;;;12.68;100.00
24752;BME280;27246;52.376;4.628;2022-10-16T08:02:58;101067.50;;;12.79;100.00
24752;BME280;27246;52.376;4.628;2022-10-16T08:08:02;101070.13;;;13.02;100.00
24752;BME280;27246;52.376;4.628;2022-10-16T08:13:04;101079.84;;;13.34;100.00
24752;BME280;27246;52.376;4.628;2022-10-16T08:18:05;101089.19;;;13.12;100.00
24752;BME280;27246;52.376;4.628;2022-10-16T08:23:09;101094.84;;;13.25;100.00
24752;BME280;27246;52.376;4.628;2022-10-16T08:28:12;101108.69;;;13.68;100.00
24752;BME280;27246;52.376;4.628;2022-10-16T08:33:14;101111.19;;;13.56;100.00
24752;BME280;27246;52.376;4.628;2022-10-16T08:38:16;101127.94;;;13.55;100.00
24752;BME280;27246;52.376;4.628;2022-10-16T08:48:48;101137.53;;;14.02;100.00
24752;BME280;27246;52.376;4.628;2022-10-16T08:53:54;101167.56;;;14.27;94.99
24752;BME280;27246;52.376;4.628;2022-10-16T08:58:58;101176.19;;;14.38;89.24
24752;BME280;27246;52.376;4.628;2022-10-16T09:04:29;101195.13;;;14.35;77.32
24752;BME280;27246;52.376;4.628;2022-10-16T09:15:35;101208.28;;;14.83;70.85
24752;BME280;27246;52.376;4.628;2022-10-16T09:25:49;101212.13;;;15.16;69.16
24752;BME280;27246;52.376;4.628;2022-10-16T09:30:52;101224.44;;;15.55;68.98
24752;BME280;27246;52.376;4.628;2022-10-16T09:35:56;101234.25;;;15.58;68.68
24752;BME280;27246;52.376;4.628;2022-10-16T09:41:02;101237.16;;;15.85;63.56
24752;BME280;27246;52.376;4.628;2022-10-16T09:46:19;101240.06;;;15.63;61.37
24752;BME280;27246;52.376;4.628;2022-10-16T09:51:26;101230.47;;;15.79;61.66
24752;BME280;27246;52.376;4.628;2022-10-16T09:56:30;101246.59;;;15.97;61.57
24752;BME280;27246;52.376;4.628;2022-10-16T10:01:40;101244.66;;;15.91;63.42
24752;BME280;27246;52.376;4.628;2022-10-16T10:06:49;101241.03;;;15.97;62.24
24752;BME280;27246;52.376;4.628;2022-10-16T10:11:57;101255.56;;;16.06;61.21
24752;BME280;27246;52.376;4.628;2022-10-16T10:22:31;101265.00;;;16.45;63.33
24752;BME280;27246;52.376;4.628;2022-10-16T10:28:13;101282.50;;;16.05;60.86
24752;BME280;27246;52.376;4.628;2022-10-16T10:38:50;101296.03;;;16.62;59.92
24752;BME280;27246;52.376;4.628;2022-10-16T10:44:01;101312.09;;;16.79;59.15
24752;BME280;27246;52.376;4.628;2022-10-16T10:55:19;101308.88;;;17.16;57.89
24752;BME280;27246;52.376;4.628;2022-10-16T11:00:55;101316.28;;;17.35;56.43
24752;BME280;27246;52.376;4.628;2022-10-16T11:06:05;101330.31;;;17.02;58.19
24752;BME280;27246;52.376;4.628;2022-10-16T11:11:22;101342.25;;;16.56;58.22
24752;BME280;27246;52.376;4.628;2022-10-16T11:16:33;101335.63;;;16.77;57.88
24752;BME280;27246;52.376;4.628;2022-10-16T11:21:47;101340.78;;;16.73;58.08
24752;BME280;27246;52.376;4.628;2022-10-16T11:26:53;101341.63;;;17.07;56.16
24752;BME280;27246;52.376;4.628;2022-10-16T11:32:05;101345.41;;;17.39;55.44
24752;BME280;27246;52.376;4.628;2022-10-16T11:37:17;101348.06;;;16.94;55.24
24752;BME280;27246;52.376;4.628;2022-10-16T11:42:43;101363.03;;;17.07;56.14
24752;BME280;27246;52.376;4.628;2022-10-16T11:47:56;101355.31;;;17.15;57.19
24752;BME280;27246;52.376;4.628;2022-10-16T11:53:13;101363.47;;;17.17;56.48
24752;BME280;27246;52.376;4.628;2022-10-16T12:03:33;101373.69;;;17.43;54.23
24752;BME280;27246;52.376;4.628;2022-10-16T12:08:39;101375.41;;;17.37;54.42
24752;BME280;27246;52.376;4.628;2022-10-16T12:13:42;101382.94;;;17.17;54.82
24752;BME280;27246;52.376;4.628;2022-10-16T12:18:46;101386.16;;;17.21;54.37
24752;BME280;27246;52.376;4.628;2022-10-16T12:23:53;101384.91;;;17.10;54.93
24752;BME280;27246;52.376;4.628;2022-10-16T12:29:14;101393.91;;;17.12;57.64
24752;BME280;27246;52.376;4.628;2022-10-16T12:34:37;101397.31;;;17.01;55.99
24752;BME280;27246;52.376;4.628;2022-10-16T12:39:39;101397.72;;;17.17;54.67
24752;BME280;27246;52.376;4.628;2022-10-16T12:44:43;101391.50;;;16.95;54.97
24752;BME280;27246;52.376;4.628;2022-10-16T12:49:51;101405.63;;;16.87;56.75
24752;BME280;27246;52.376;4.628;2022-10-16T12:54:58;101409.72;;;16.91;55.13
24752;BME280;27246;52.376;4.628;2022-10-16T13:06:06;101408.66;;;16.92;53.56
24752;BME280;27246;52.376;4.628;2022-10-16T13:32:30;101430.66;;;16.12;56.92
24752;BME280;27246;52.376;4.628;2022-10-16T13:37:32;101441.97;;;16.04;57.01
24752;BME280;27246;52.376;4.628;2022-10-16T13:42:34;101437.59;;;15.82;58.40
24752;BME280;27246;52.376;4.628;2022-10-16T13:47:37;101447.03;;;15.87;58.83
24752;BME280;27246;52.376;4.628;2022-10-16T13:52:39;101448.84;;;15.73;58.35
24752;BME280;27246;52.376;4.628;2022-10-16T13:57:41;101454.25;;;15.82;59.09
24752;BME280;27246;52.376;4.628;2022-10-16T14:02:43;101450.34;;;15.76;60.40
24752;BME280;27246;52.376;4.628;2022-10-16T14:07:49;101452.88;;;15.71;59.73
24752;BME280;27246;52.376;4.628;2022-10-16T14:13:01;101447.03;;;15.59;59.53
24752;BME280;27246;52.376;4.628;2022-10-16T14:18:04;101451.31;;;15.62;58.72
24752;BME280;27246;52.376;4.628;2022-10-16T14:23:23;101443.00;;;15.68;59.66
24752;BME280;27246;52.376;4.628;2022-10-16T14:28:30;101448.19;;;15.71;59.45
24752;BME280;27246;52.376;4.628;2022-10-16T14:33:33;101452.00;;;15.70;60.22
24752;BME280;27246;52.376;4.628;2022-10-16T14:38:37;101461.59;;;15.68;60.73
24752;BME280;27246;52.376;4.628;2022-10-16T14:43:41;101457.53;;;15.64;60.18
24752;BME280;27246;52.376;4.628;2022-10-16T14:48:46;101452.44;;;15.67;60.12
24752;BME280;27246;52.376;4.628;2022-10-16T14:53:49;101456.03;;;15.61;60.75
24752;BME280;27246;52.376;4.628;2022-10-16T14:58:52;101465.19;;;15.62;61.09
24752;BME280;27246;52.376;4.628;2022-10-16T15:03:54;101454.88;;;15.49;62.01
24752;BME280;27246;52.376;4.628;2022-10-16T15:08:56;101470.22;;;15.45;62.92
24752;BME280;27246;52.376;4.628;2022-10-16T15:13:58;101463.59;;;15.46;63.13
24752;BME280;27246;52.376;4.628;2022-10-16T15:19:00;101456.72;;;15.42;63.12
24752;BME280;27246;52.376;4.628;2022-10-16T15:24:01;101455.41;;;15.37;62.36
24752;BME280;27246;52.376;4.628;2022-10-16T15:29:04;101458.19;;;15.37;63.00
24752;BME280;27246;52.376;4.628;2022-10-16T15:34:08;101453.72;;;15.36;61.50
24752;BME280;27246;52.376;4.628;2022-10-16T15:39:15;101448.31;;;15.28;61.46
24752;BME280;27246;52.376;4.628;2022-10-16T15:44:17;101455.38;;;15.31;62.13
24752;BME280;27246;52.376;4.628;2022-10-16T15:49:19;101451.75;;;15.30;62.49
24752;BME280;27246;52.376;4.628;2022-10-16T15:54:21;101465.81;;;15.29;62.85
24752;BME280;27246;52.376;4.628;2022-10-16T15:59:24;101458.53;;;15.28;63.28
24752;BME280;27246;52.376;4.628;2022-10-16T16:04:25;101469.78;;;15.19;63.32
24752;BME280;27246;52.376;4.628;2022-10-16T16:09:45;101463.34;;;15.12;63.13
24752;BME280;27246;52.376;4.628;2022-10-16T16:14:47;101465.03;;;15.13;64.47
24752;BME280;27246;52.376;4.628;2022-10-16T16:19:50;101474.63;;;15.11;65.87
24752;BME280;27246;52.376;4.628;2022-10-16T16:24:52;101465.59;;;15.02;67.01
24752;BME280;27246;52.376;4.628;2022-10-16T16:29:54;101465.38;;;15.04;68.30
24752;BME280;27246;52.376;4.628;2022-10-16T16:34:56;101483.41;;;14.93;69.50
24752;BME280;27246;52.376;4.628;2022-10-16T16:39:58;101475.03;;;14.86;69.30
24752;BME280;27246;52.376;4.628;2022-10-16T16:44:59;101477.81;;;14.86;69.23
24752;BME280;27246;52.376;4.628;2022-10-16T16:50:02;101481.38;;;14.80;69.84
24752;BME280;27246;52.376;4.628;2022-10-16T16:55:13;101476.44;;;14.75;69.77
24752;BME280;27246;52.376;4.628;2022-10-16T17:00:15;101485.41;;;14.77;70.14
24752;BME280;27246;52.376;4.628;2022-10-16T17:05:17;101498.13;;;14.72;70.82
24752;BME280;27246;52.376;4.628;2022-10-16T17:10:19;101509.22;;;14.72;71.55
24752;BME280;27246;52.376;4.628;2022-10-16T17:15:21;101506.63;;;14.70;71.91
24752;BME280;27246;52.376;4.628;2022-10-16T17:20:23;101507.59;;;14.63;71.21
24752;BME280;27246;52.376;4.628;2022-10-16T17:25:25;101526.16;;;14.62;71.40
24752;BME280;27246;52.376;4.628;2022-10-16T17:30:30;101524.03;;;14.64;72.17
24752;BME280;27246;52.376;4.628;2022-10-16T17:35:44;101529.31;;;14.59;72.57
24752;BME280;27246;52.376;4.628;2022-10-16T17:40:49;101521.56;;;14.54;72.34
24752;BME280;27246;52.376;4.628;2022-10-16T17:45:51;101517.09;;;14.53;72.10
24752;BME280;27246;52.376;4.628;2022-10-16T17:50:53;101512.34;;;14.47;71.83
24752;BME280;27246;52.376;4.628;2022-10-16T17:55:55;101522.16;;;14.50;72.05
24752;BME280;27246;52.376;4.628;2022-10-16T18:01:13;101523.88;;;14.51;71.97
24752;BME280;27246;52.376;4.628;2022-10-16T18:06:15;101537.94;;;14.49;71.89
24752;BME280;27246;52.376;4.628;2022-10-16T18:11:24;101530.47;;;14.50;72.73
24752;BME280;27246;52.376;4.628;2022-10-16T18:16:28;101534.50;;;14.47;72.60
24752;BME280;27246;52.376;4.628;2022-10-16T18:21:31;101536.63;;;14.45;72.60
24752;BME280;27246;52.376;4.628;2022-10-16T18:26:33;101544.28;;;14.43;73.70
24752;BME280;27246;52.376;4.628;2022-10-16T18:31:35;101539.94;;;14.40;73.11
24752;BME280;27246;52.376;4.628;2022-10-16T18:36:42;101548.44;;;14.39;73.49
24752;BME280;27246;52.376;4.628;2022-10-16T18:41:44;101546.94;;;14.36;73.73
24752;BME280;27246;52.376;4.628;2022-10-16T18:46:48;101542.16;;;14.30;73.82
24752;BME280;27246;52.376;4.628;2022-10-16T18:51:50;101554.59;;;14.34;74.37
24752;BME280;27246;52.376;4.628;2022-10-16T18:56:58;101549.88;;;14.35;74.73
24752;BME280;27246;52.376;4.628;2022-10-16T19:02:00;101562.91;;;14.34;75.22
24752;BME280;27246;52.376;4.628;2022-10-16T19:07:01;101559.38;;;14.26;75.40
24752;BME280;27246;52.376;4.628;2022-10-16T19:12:03;101555.53;;;14.27;75.70
24752;BME280;27246;52.376;4.628;2022-10-16T19:17:05;101544.00;;;14.23;76.66
24752;BME280;27246;52.376;4.628;2022-10-16T19:22:07;101551.84;;;14.19;77.31
24752;BME280;27246;52.376;4.628;2022-10-16T19:27:14;101545.81;;;14.16;78.03
24752;BME280;27246;52.376;4.628;2022-10-16T19:32:16;101554.97;;;14.16;78.27
24752;BME280;27246;52.376;4.628;2022-10-16T19:37:18;101542.19;;;14.15;79.61
24752;BME280;27246;52.376;4.628;2022-10-16T19:42:26;101522.13;;;14.13;80.54
24752;BME280;27246;52.376;4.628;2022-10-16T19:47:28;101511.81;;;14.07;81.19
24752;BME280;27246;52.376;4.628;2022-10-16T19:52:29;101487.53;;;14.09;82.74
24752;BME280;27246;52.376;4.628;2022-10-16T19:57:33;101480.09;;;13.95;83.10
24752;BME280;27246;52.376;4.628;2022-10-16T20:02:36;101488.41;;;13.95;83.98
24752;BME280;27246;52.376;4.628;2022-10-16T20:07:38;101485.63;;;13.95;85.09
24752;BME280;27246;52.376;4.628;2022-10-16T20:12:41;101517.91;;;14.03;84.86
24752;BME280;27246;52.376;4.628;2022-10-16T20:17:43;101519.81;;;14.02;86.22
24752;BME280;27246;52.376;4.628;2022-10-16T20:22:45;101517.03;;;14.02;85.62
24752;BME280;27246;52.376;4.628;2022-10-16T20:27:47;101537.78;;;14.06;86.34
24752;BME280;27246;52.376;4.628;2022-10-16T20:32:50;101540.53;;;14.06;86.45
24752;BME280;27246;52.376;4.628;2022-10-16T20:37:52;101534.81;;;14.08;87.55
24752;BME280;27246;52.376;4.628;2022-10-16T20:42:53;101539.69;;;14.06;87.08
24752;BME280;27246;52.376;4.628;2022-10-16T20:47:55;101540.53;;;14.06;87.25
24752;BME280;27246;52.376;4.628;2022-10-16T20:52:58;101535.66;;;14.08;88.05
24752;BME280;27246;52.376;4.628;2022-10-16T20:58:00;101518.47;;;13.98;88.21
24752;BME280;27246;52.376;4.628;2022-10-16T21:03:01;101509.00;;;13.92;88.01
24752;BME280;27246;52.376;4.628;2022-10-16T21:08:03;101502.13;;;13.88;88.66
24752;BME280;27246;52.376;4.628;2022-10-16T21:13:05;101494.59;;;13.82;89.02
24752;BME280;27246;52.376;4.628;2022-10-16T21:18:06;101501.28;;;13.88;89.68
24752;BME280;27246;52.376;4.628;2022-10-16T21:23:10;101500.44;;;13.87;90.00
24752;BME280;27246;52.376;4.628;2022-10-16T21:28:12;101493.94;;;13.80;89.93
24752;BME280;27246;52.376;4.628;2022-10-16T21:33:13;101499.09;;;13.83;90.90
24752;BME280;27246;52.376;4.628;2022-10-16T21:38:15;101510.66;;;13.87;91.43
24752;BME280;27246;52.376;4.628;2022-10-16T21:43:17;101502.06;;;13.82;92.04
24752;BME280;27246;52.376;4.628;2022-10-16T21:48:18;101476.47;;;13.79;92.05
24752;BME280;27246;52.376;4.628;2022-10-16T21:53:20;101466.22;;;13.80;92.58
24752;BME280;27246;52.376;4.628;2022-10-16T21:58:23;101475.69;;;13.71;92.90
24752;BME280;27246;52.376;4.628;2022-10-16T22:03:24;101458.31;;;13.62;93.77
24752;BME280;27246;52.376;4.628;2022-10-16T22:08:26;101463.16;;;13.60;94.22
24752;BME280;27246;52.376;4.628;2022-10-16T22:13:28;101467.28;;;13.64;94.69
24752;BME280;27246;52.376;4.628;2022-10-16T22:18:30;101474.16;;;13.68;94.97
24752;BME280;27246;52.376;4.628;2022-10-16T22:23:32;101465.19;;;13.66;95.54
24752;BME280;27246;52.376;4.628;2022-10-16T22:28:34;101461.84;;;13.71;95.76
24752;BME280;27246;52.376;4.628;2022-10-16T22:33:36;101464.06;;;13.75;95.92
24752;BME280;27246;52.376;4.628;2022-10-16T22:38:38;101451.63;;;13.71;95.90
24752;BME280;27246;52.376;4.628;2022-10-16T22:43:43;101443.16;;;13.73;96.08
24752;BME280;27246;52.376;4.628;2022-10-16T22:48:45;101455.75;;;13.75;96.05
24752;BME280;27246;52.376;4.628;2022-10-16T22:53:48;101455.38;;;13.78;96.52
24752;BME280;27246;52.376;4.628;2022-10-16T22:58:50;101471.78;;;13.80;96.49
24752;BME280;27246;52.376;4.628;2022-10-16T23:03:51;101457.06;;;13.79;96.53
24752;BME280;27246;52.376;4.628;2022-10-16T23:08:55;101451.25;;;13.74;96.92
24752;BME280;27246;52.376;4.628;2022-10-16T23:13:57;101452.09;;;13.60;97.45
24752;BME280;27246;52.376;4.628;2022-10-16T23:18:59;101457.94;;;13.65;98.10
24752;BME280;27246;52.376;4.628;2022-10-16T23:24:01;101452.00;;;13.68;97.93
24752;BME280;27246;52.376;4.628;2022-10-16T23:29:03;101460.13;;;13.70;98.44
24752;BME280;27246;52.376;4.628;2022-10-16T23:34:04;101451.16;;;13.68;98.32
24752;BME280;27246;52.376;4.628;2022-10-16T23:39:06;101452.59;;;13.64;98.91
24752;BME280;27246;52.376;4.628;2022-10-16T23:44:08;101442.75;;;13.61;99.30
24752;BME280;27246;52.376;4.628;2022-10-16T23:49:09;101428.72;;;13.63;99.96
24752;BME280;27246;52.376;4.628;2022-10-16T23:54:11;101419.28;;;13.57;99.74
24752;BME280;27246;52.376;4.628;2022-10-16T23:59:13;101414.06;;;13.54;100.00
